createdAt,value
2018-09-02T00:01:27.028Z,14.65
2018-09-02T00:03:55.547Z,13.43
2018-09-02T00:06:24.088Z,14.03
2018-09-02T00:08:52.851Z,14.68
2018-09-02T00:11:21.366Z,14.87
2018-09-02T00:13:49.857Z,14.65
2018-09-02T00:16:18.375Z,15.15
2018-09-02T00:18:46.875Z,17.23
2018-09-02T00:21:15.442Z,17.15
2018-09-02T00:23:44.001Z,17.05
2018-09-02T00:26:12.741Z,15.10
2018-09-02T00:28:41.281Z,16.77
2018-09-02T00:31:09.812Z,16.73
2018-09-02T00:33:38.343Z,16.55
2018-09-02T00:36:06.855Z,16.30
2018-09-02T00:38:35.388Z,16.32
2018-09-02T00:41:03.918Z,15.20
2018-09-02T00:43:32.500Z,18.07
2018-09-02T00:46:00.996Z,18.62
2018-09-02T00:48:29.494Z,19.75
2018-09-02T00:50:58.047Z,19.45
2018-09-02T00:53:26.537Z,18.95
2018-09-02T00:55:55.029Z,19.05
2018-09-02T00:58:23.513Z,20.30
2018-09-02T01:00:52.005Z,19.45
2018-09-02T01:03:20.852Z,18.50
2018-09-02T01:05:50.578Z,18.00
2018-09-02T01:08:19.208Z,19.35
2018-09-02T01:10:48.561Z,18.60
2018-09-02T01:13:17.092Z,19.65
2018-09-02T01:15:46.369Z,19.50
2018-09-02T01:18:14.915Z,20.40
2018-09-02T01:20:43.399Z,19.77
2018-09-02T01:23:12.067Z,20.35
2018-09-02T01:25:40.896Z,20.62
2018-09-02T01:28:09.888Z,23.00
2018-09-02T01:30:38.918Z,22.05
2018-09-02T01:33:07.866Z,24.30
2018-09-02T01:35:36.449Z,23.73
2018-09-02T01:38:05.969Z,23.35
2018-09-02T01:40:35.464Z,25.70
2018-09-02T01:43:04.673Z,24.98
2018-09-02T01:45:33.467Z,25.17
2018-09-02T01:48:02.460Z,26.95
2018-09-02T01:50:30.989Z,34.20
2018-09-02T01:52:59.503Z,32.03
2018-09-02T01:55:28.004Z,40.23
2018-09-02T01:57:56.520Z,47.62
2018-09-02T02:00:25.039Z,45.80
2018-09-02T02:02:53.536Z,49.38
2018-09-02T02:05:22.047Z,60.90
2018-09-02T02:07:50.673Z,58.78
2018-09-02T02:10:19.164Z,62.15
2018-09-02T02:12:47.658Z,63.63
2018-09-02T02:15:16.265Z,63.80
2018-09-02T02:17:44.756Z,66.70
2018-09-02T02:20:13.267Z,71.15
2018-09-02T02:22:41.777Z,66.33
2018-09-02T02:25:10.260Z,67.12
2018-09-02T02:27:39.642Z,62.73
2018-09-02T02:30:08.235Z,68.17
2018-09-02T02:32:36.746Z,56.85
2018-09-02T02:35:05.366Z,65.78
2018-09-02T02:37:33.889Z,65.55
2018-09-02T02:40:02.406Z,60.20
2018-09-02T02:42:30.900Z,62.25
2018-09-02T02:44:59.408Z,61.42
2018-09-02T02:47:27.903Z,62.05
2018-09-02T02:49:56.448Z,59.75
2018-09-02T02:52:29.170Z,56.98
2018-09-02T02:54:57.661Z,57.50
2018-09-02T02:57:26.160Z,52.23
2018-09-02T02:59:54.678Z,52.55
2018-09-02T03:02:23.233Z,53.75
2018-09-02T03:04:51.848Z,56.28
2018-09-02T03:07:20.370Z,54.45
2018-09-02T03:09:48.900Z,53.33
2018-09-02T03:12:17.441Z,50.48
2018-09-02T03:14:45.944Z,53.78
2018-09-02T03:17:14.428Z,58.52
2018-09-02T03:19:42.922Z,57.70
2018-09-02T03:22:11.636Z,54.67
2018-09-02T03:24:40.137Z,54.63
2018-09-02T03:27:08.638Z,59.60
2018-09-02T03:29:37.144Z,52.88
2018-09-02T03:32:05.664Z,57.40
2018-09-02T03:34:34.345Z,61.30
2018-09-02T03:37:02.849Z,57.23
2018-09-02T03:39:31.715Z,62.15
2018-09-02T03:42:00.191Z,62.00
2018-09-02T03:44:28.686Z,56.58
2018-09-02T03:46:57.168Z,61.28
2018-09-02T03:49:25.661Z,56.42
2018-09-02T03:51:54.276Z,52.78
2018-09-02T03:54:22.766Z,55.55
2018-09-02T03:56:51.269Z,54.42
2018-09-02T03:59:19.818Z,54.42
2018-09-02T04:01:48.322Z,53.92
2018-09-02T04:04:16.847Z,51.08
2018-09-02T04:06:45.385Z,57.75
2018-09-02T04:09:13.902Z,52.40
2018-09-02T04:11:42.450Z,49.20
2018-09-02T04:14:10.973Z,53.48
2018-09-02T04:16:39.466Z,52.00
2018-09-02T04:19:07.977Z,49.20
2018-09-02T04:21:36.604Z,51.55
2018-09-02T04:24:05.123Z,53.73
2018-09-02T04:26:33.645Z,54.88
2018-09-02T04:29:02.185Z,53.63
2018-09-02T04:31:30.768Z,52.80
2018-09-02T04:33:59.281Z,57.73
2018-09-02T04:36:27.785Z,55.80
2018-09-02T04:38:56.417Z,53.50
2018-09-02T04:41:24.994Z,51.75
2018-09-02T04:43:53.513Z,52.67
2018-09-02T04:46:22.477Z,52.25
2018-09-02T04:48:50.992Z,50.98
2018-09-02T04:51:19.763Z,51.70
2018-09-02T04:53:48.271Z,52.48
2018-09-02T04:56:16.765Z,54.53
2018-09-02T04:58:45.277Z,50.78
2018-09-02T05:01:13.782Z,51.60
2018-09-02T05:03:42.288Z,52.55
2018-09-02T05:06:10.829Z,52.60
2018-09-02T05:08:39.326Z,54.35
2018-09-02T05:11:07.869Z,55.40
2018-09-02T05:13:36.438Z,53.80
2018-09-02T05:16:04.931Z,51.50
2018-09-02T05:18:33.409Z,55.88
2018-09-02T05:21:01.930Z,56.83
2018-09-02T05:23:30.736Z,56.50
2018-09-02T05:25:59.265Z,56.42
2018-09-02T05:28:27.741Z,56.85
2018-09-02T05:30:56.387Z,56.68
2018-09-02T05:33:24.832Z,56.13
2018-09-02T05:35:53.477Z,65.95
2018-09-02T05:38:22.440Z,57.60
2018-09-02T05:40:50.977Z,62.50
2018-09-02T05:43:19.495Z,63.02
2018-09-02T05:45:48.019Z,67.47
2018-09-02T05:48:16.516Z,63.35
2018-09-02T05:50:45.020Z,66.82
2018-09-02T05:53:13.540Z,74.12
2018-09-02T05:55:42.034Z,78.60
2018-09-02T05:58:10.557Z,77.85
2018-09-02T06:00:39.115Z,78.95
2018-09-02T06:03:07.608Z,80.30
2018-09-02T06:05:36.257Z,84.97
2018-09-02T06:08:04.829Z,85.95
2018-09-02T06:10:33.365Z,85.65
2018-09-02T06:13:02.116Z,94.35
2018-09-02T06:15:30.617Z,92.33
2018-09-02T06:17:59.149Z,85.62
2018-09-02T06:20:27.697Z,81.92
2018-09-02T06:22:56.194Z,74.30
2018-09-02T06:25:24.704Z,76.27
2018-09-02T06:27:53.237Z,70.40
2018-09-02T06:30:21.897Z,68.92
2018-09-02T06:32:50.503Z,67.03
2018-09-02T06:35:19.304Z,57.47
2018-09-02T06:37:47.822Z,47.97
2018-09-02T06:40:16.353Z,31.80
2018-09-02T06:42:44.983Z,19.93
2018-09-02T06:45:13.464Z,18.30
2018-09-02T06:47:42.209Z,13.63
2018-09-02T06:50:10.777Z,12.97
2018-09-02T06:52:39.267Z,12.47
2018-09-02T06:55:07.780Z,11.40
2018-09-02T06:57:36.296Z,11.60
2018-09-02T07:00:04.840Z,11.43
2018-09-02T07:02:33.414Z,12.03
2018-09-02T07:05:01.937Z,11.67
2018-09-02T07:07:30.621Z,11.13
2018-09-02T07:09:59.062Z,9.80
2018-09-02T07:12:27.593Z,11.30
2018-09-02T07:14:56.098Z,10.40
2018-09-02T07:17:24.701Z,10.67
2018-09-02T07:19:53.221Z,10.73
2018-09-02T07:22:21.736Z,10.63
2018-09-02T07:24:50.215Z,9.30
2018-09-02T07:27:18.717Z,11.17
2018-09-02T07:29:47.204Z,10.23
2018-09-02T07:32:15.699Z,11.60
2018-09-02T07:34:44.219Z,10.63
2018-09-02T07:37:12.762Z,10.10
2018-09-02T07:39:41.266Z,9.80
2018-09-02T07:42:09.774Z,10.50
2018-09-02T07:44:38.772Z,10.77
2018-09-02T07:47:07.262Z,9.70
2018-09-02T07:49:35.797Z,10.60
2018-09-02T07:52:04.326Z,10.40
2018-09-02T07:54:32.900Z,10.80
2018-09-02T07:57:01.441Z,9.67
2018-09-02T07:59:29.970Z,8.87
2018-09-02T08:01:58.473Z,10.60
2018-09-02T08:04:27.034Z,9.00
2018-09-02T08:06:55.546Z,10.23
2018-09-02T08:09:24.049Z,10.63
2018-09-02T08:11:52.669Z,10.70
2018-09-02T08:14:21.178Z,11.10
2018-09-02T08:16:49.695Z,9.57
2018-09-02T08:19:18.214Z,10.10
2018-09-02T08:21:46.718Z,9.27
2018-09-02T08:24:15.234Z,9.07
2018-09-02T08:26:43.881Z,10.17
2018-09-02T08:29:12.342Z,10.33
2018-09-02T08:31:40.863Z,8.73
2018-09-02T08:34:09.719Z,7.80
2018-09-02T08:36:38.374Z,8.93
2018-09-02T08:39:09.829Z,8.77
2018-09-02T08:41:38.401Z,9.37
2018-09-02T08:44:07.056Z,8.27
2018-09-02T08:46:35.594Z,9.30
2018-09-02T08:49:04.155Z,7.90
2018-09-02T08:51:33.038Z,7.73
2018-09-02T08:54:01.586Z,7.80
2018-09-02T08:56:30.630Z,9.13
2018-09-02T08:58:59.126Z,9.10
2018-09-02T09:01:27.665Z,6.97
2018-09-02T09:03:56.162Z,6.67
2018-09-02T09:06:25.235Z,7.10
2018-09-02T09:08:54.088Z,6.90
2018-09-02T09:11:22.546Z,5.90
2018-09-02T09:13:51.229Z,6.17
2018-09-02T09:16:20.022Z,6.50
2018-09-02T09:18:48.472Z,5.67
2018-09-02T09:21:16.952Z,5.33
2018-09-02T09:23:45.468Z,5.63
2018-09-02T09:26:14.006Z,4.30
2018-09-02T09:28:42.470Z,4.20
2018-09-02T09:31:11.162Z,4.67
2018-09-02T09:33:39.820Z,3.50
2018-09-02T09:36:08.425Z,4.10
2018-09-02T09:38:36.936Z,4.37
2018-09-02T09:41:05.889Z,3.13
2018-09-02T09:43:34.392Z,3.30
2018-09-02T09:46:03.006Z,2.80
2018-09-02T09:48:31.452Z,3.00
2018-09-02T09:50:59.956Z,3.30
2018-09-02T09:53:28.476Z,2.60
2018-09-02T09:55:57.014Z,2.20
2018-09-02T09:58:25.571Z,2.33
2018-09-02T10:00:54.069Z,2.90
2018-09-02T10:03:23.029Z,2.50
2018-09-02T10:05:51.516Z,2.87
2018-09-02T10:08:20.055Z,2.27
2018-09-02T10:10:48.582Z,1.67
2018-09-02T10:13:17.059Z,2.03
2018-09-02T10:15:45.645Z,1.53
2018-09-02T10:18:14.318Z,1.83
2018-09-02T10:20:42.747Z,2.50
2018-09-02T10:23:11.270Z,2.27
2018-09-02T10:25:39.747Z,2.00
2018-09-02T10:28:08.290Z,1.73
2018-09-02T10:30:36.792Z,2.10
2018-09-02T10:33:05.406Z,3.13
2018-09-02T10:35:33.920Z,2.30
2018-09-02T10:38:02.468Z,2.03
2018-09-02T10:40:31.010Z,2.13
2018-09-02T10:42:59.503Z,2.20
2018-09-02T10:45:28.170Z,2.10
2018-09-02T10:47:56.714Z,4.10
2018-09-02T10:50:25.216Z,2.00
2018-09-02T10:52:53.735Z,1.73
2018-09-02T10:55:22.377Z,2.50
2018-09-02T10:57:50.870Z,1.80
2018-09-02T11:00:19.374Z,2.83
2018-09-02T11:02:47.864Z,2.00
2018-09-02T11:05:16.351Z,3.03
2018-09-02T11:07:44.922Z,2.57
2018-09-02T11:10:13.373Z,2.10
2018-09-02T11:12:41.882Z,1.87
2018-09-02T11:15:10.425Z,1.87
2018-09-02T11:17:38.928Z,1.70
2018-09-02T11:20:07.767Z,1.33
2018-09-02T11:22:36.310Z,2.10
2018-09-02T11:25:04.837Z,2.13
2018-09-02T11:27:33.320Z,2.57
2018-09-02T11:30:01.870Z,2.00
2018-09-02T11:32:31.497Z,2.73
2018-09-02T11:35:00.042Z,2.37
2018-09-02T11:37:28.551Z,2.20
2018-09-02T11:39:57.023Z,2.13
2018-09-02T11:42:25.514Z,1.60
2018-09-02T11:44:54.155Z,2.33
2018-09-02T11:47:22.651Z,3.00
2018-09-02T11:49:51.131Z,2.00
2018-09-02T11:52:19.642Z,2.50
2018-09-02T11:54:48.148Z,2.27
2018-09-02T11:57:16.679Z,1.80
2018-09-02T11:59:45.256Z,2.23
2018-09-02T12:02:13.740Z,2.53
2018-09-02T12:04:42.346Z,2.20
2018-09-02T12:07:10.874Z,3.13
2018-09-02T12:09:39.373Z,2.37
2018-09-02T12:12:07.923Z,2.30
2018-09-02T12:14:36.496Z,2.40
2018-09-02T12:17:04.954Z,2.60
2018-09-02T12:19:33.457Z,2.00
2018-09-02T12:22:02.036Z,2.00
2018-09-02T12:24:30.531Z,1.70
2018-09-02T12:26:59.048Z,2.97
2018-09-02T12:29:27.577Z,2.90
2018-09-02T12:31:56.073Z,2.17
2018-09-02T12:34:24.589Z,3.23
2018-09-02T12:36:53.142Z,2.00
2018-09-02T12:39:21.663Z,1.97
2018-09-02T12:41:50.159Z,2.70
2018-09-02T12:44:18.694Z,3.40
2018-09-02T12:46:47.183Z,2.70
2018-09-02T12:49:15.671Z,2.53
2018-09-02T12:51:44.256Z,2.10
2018-09-02T12:54:12.812Z,2.40
2018-09-02T12:56:41.339Z,2.70
2018-09-02T12:59:09.917Z,2.67
2018-09-02T13:01:38.444Z,2.93
2018-09-02T13:04:06.967Z,3.07
2018-09-02T13:06:35.501Z,2.50
2018-09-02T13:09:05.014Z,2.97
2018-09-02T13:11:33.517Z,3.03
2018-09-02T13:14:02.192Z,1.90
2018-09-02T13:16:30.698Z,2.40
2018-09-02T13:18:59.247Z,2.63
2018-09-02T13:21:27.936Z,2.47
2018-09-02T13:23:56.488Z,1.77
2018-09-02T13:26:25.106Z,2.20
2018-09-02T13:28:53.639Z,2.10
2018-09-02T13:31:22.113Z,2.50
2018-09-02T13:33:50.642Z,1.93
2018-09-02T13:36:19.139Z,1.73
2018-09-02T13:38:47.751Z,3.37
2018-09-02T13:41:16.281Z,1.30
2018-09-02T13:43:44.892Z,3.27
2018-09-02T13:46:13.388Z,2.37
2018-09-02T13:48:41.905Z,1.97
2018-09-02T13:51:10.460Z,2.27
2018-09-02T13:53:38.970Z,2.30
2018-09-02T13:56:07.465Z,2.10
2018-09-02T13:58:36.074Z,2.17
2018-09-02T14:01:04.670Z,2.07
2018-09-02T14:03:33.245Z,2.90
2018-09-02T14:06:01.757Z,1.60
2018-09-02T14:08:30.252Z,2.20
2018-09-02T14:10:58.748Z,2.00
2018-09-02T14:13:27.261Z,2.90
2018-09-02T14:15:55.891Z,1.63
2018-09-02T14:18:24.460Z,2.30
2018-09-02T14:20:53.248Z,2.67
2018-09-02T14:23:21.779Z,2.03
2018-09-02T14:25:50.336Z,1.80
2018-09-02T14:28:18.938Z,1.97
2018-09-02T14:30:47.451Z,1.73
2018-09-02T14:33:16.081Z,2.03
2018-09-02T14:35:44.679Z,2.30
2018-09-02T14:38:13.196Z,1.87
2018-09-02T14:40:41.719Z,1.90
2018-09-02T14:43:10.228Z,2.53
2018-09-02T14:45:38.751Z,2.20
2018-09-02T14:48:07.454Z,2.87
2018-09-02T14:50:36.022Z,2.40
2018-09-02T14:53:04.537Z,2.43
2018-09-02T14:55:33.047Z,3.17
2018-09-02T14:58:01.560Z,3.13
2018-09-02T15:00:30.075Z,3.03
2018-09-02T15:02:58.588Z,6.33
2018-09-02T15:05:27.170Z,2.60
2018-09-02T15:07:55.762Z,1.93
2018-09-02T15:10:24.423Z,2.70
2018-09-02T15:12:53.008Z,2.27
2018-09-02T15:15:21.519Z,2.77
2018-09-02T15:17:50.193Z,2.40
2018-09-02T15:20:18.714Z,2.33
2018-09-02T15:22:47.221Z,3.63
2018-09-02T15:25:16.310Z,2.20
2018-09-02T15:27:45.156Z,1.87
2018-09-02T15:30:13.797Z,2.20
2018-09-02T15:32:42.365Z,2.53
2018-09-02T15:35:10.878Z,2.17
2018-09-02T15:37:39.403Z,2.10
2018-09-02T15:40:07.908Z,1.90
2018-09-02T15:42:36.439Z,2.50
2018-09-02T15:45:05.119Z,2.67
2018-09-02T15:47:33.606Z,2.23
2018-09-02T15:50:02.100Z,2.10
2018-09-02T15:52:30.656Z,2.73
2018-09-02T15:54:59.170Z,2.50
2018-09-02T15:57:27.764Z,3.13
2018-09-02T15:59:56.284Z,1.97
2018-09-02T16:02:24.785Z,2.03
2018-09-02T16:04:53.322Z,2.37
2018-09-02T16:07:26.007Z,2.70
2018-09-02T16:09:54.581Z,2.63
2018-09-02T16:12:23.099Z,2.43
2018-09-02T16:14:51.714Z,2.30
2018-09-02T16:17:20.231Z,3.30
2018-09-02T16:19:48.727Z,2.07
2018-09-02T16:22:17.321Z,2.40
2018-09-02T16:24:45.818Z,2.20
2018-09-02T16:27:14.303Z,2.20
2018-09-02T16:29:42.837Z,2.33
2018-09-02T16:32:11.469Z,2.40
2018-09-02T16:34:39.949Z,1.97
2018-09-02T16:37:09.360Z,2.60
2018-09-02T16:39:38.297Z,3.33
2018-09-02T16:42:06.832Z,2.50
2018-09-02T16:44:35.447Z,2.90
2018-09-02T16:47:04.031Z,2.50
2018-09-02T16:49:32.534Z,3.10
2018-09-02T16:52:01.031Z,2.90
2018-09-02T16:54:29.578Z,3.07
2018-09-02T16:56:58.067Z,2.80
2018-09-02T16:59:26.614Z,4.20
2018-09-02T17:01:55.198Z,2.30
2018-09-02T17:04:24.990Z,2.83
2018-09-02T17:06:53.510Z,2.67
2018-09-02T17:09:22.038Z,2.80
2018-09-02T17:11:50.546Z,2.50
2018-09-02T17:14:19.024Z,3.10
2018-09-02T17:16:47.541Z,2.93
2018-09-02T17:19:22.749Z,2.67
2018-09-02T17:21:51.382Z,2.83
2018-09-02T17:24:20.023Z,2.80
2018-09-02T17:26:48.557Z,2.63
2018-09-02T17:29:17.163Z,3.20
2018-09-02T17:31:45.772Z,3.83
2018-09-02T17:34:14.309Z,2.43
2018-09-02T17:36:42.825Z,3.87
2018-09-02T17:39:12.836Z,3.27
2018-09-02T17:41:42.101Z,3.30
2018-09-02T17:44:10.603Z,3.67
2018-09-02T17:46:39.108Z,3.80
2018-09-02T17:49:07.604Z,3.60
2018-09-02T17:51:36.139Z,3.03
2018-09-02T17:54:04.670Z,3.50
2018-09-02T17:56:33.183Z,3.20
2018-09-02T17:59:01.712Z,2.43
2018-09-02T18:01:30.271Z,2.93
2018-09-02T18:03:58.781Z,2.53
2018-09-02T18:06:27.314Z,2.73
2018-09-02T18:08:55.785Z,2.50
2018-09-02T18:11:24.273Z,2.60
2018-09-02T18:13:52.793Z,2.40
2018-09-02T18:16:21.318Z,4.03
2018-09-02T18:18:49.864Z,2.40
2018-09-02T18:21:18.427Z,2.03
2018-09-02T18:23:46.994Z,3.13
2018-09-02T18:26:15.491Z,3.47
2018-09-02T18:28:45.830Z,3.13
2018-09-02T18:31:14.483Z,2.67
2018-09-02T18:33:43.091Z,4.43
2018-09-02T18:36:12.153Z,3.20
2018-09-02T18:38:40.628Z,2.73
2018-09-02T18:41:09.140Z,2.47
2018-09-02T18:43:37.684Z,2.97
2018-09-02T18:46:06.209Z,3.30
2018-09-02T18:48:34.756Z,3.07
2018-09-02T18:51:03.392Z,4.13
2018-09-02T18:53:31.905Z,3.37
2018-09-02T18:56:00.509Z,3.27
2018-09-02T18:58:29.063Z,3.40
2018-09-02T19:00:57.730Z,4.40
2018-09-02T19:03:26.246Z,3.63
2018-09-02T19:05:54.769Z,4.20
2018-09-02T19:08:23.260Z,4.03
2018-09-02T19:10:51.860Z,3.70
2018-09-02T19:13:20.448Z,2.57
2018-09-02T19:15:48.939Z,2.70
2018-09-02T19:18:17.458Z,3.00
2018-09-02T19:20:46.048Z,3.40
2018-09-02T19:23:14.581Z,3.20
2018-09-02T19:25:43.106Z,3.67
2018-09-02T19:28:11.638Z,3.27
2018-09-02T19:30:40.173Z,2.83
2018-09-02T19:33:08.825Z,4.67
2018-09-02T19:35:37.385Z,3.93
2018-09-02T19:38:05.905Z,2.90
2018-09-02T19:40:34.495Z,3.20
2018-09-02T19:43:02.974Z,3.67
2018-09-02T19:45:31.514Z,2.70
2018-09-02T19:48:00.052Z,4.00
2018-09-02T19:50:28.572Z,4.43
2018-09-02T19:52:57.101Z,3.00
2018-09-02T19:55:25.630Z,3.13
2018-09-02T19:57:54.176Z,3.43
2018-09-02T20:00:22.704Z,2.70
2018-09-02T20:02:51.233Z,3.80
2018-09-02T20:05:19.796Z,3.23
2018-09-02T20:07:48.300Z,3.00
2018-09-02T20:10:16.825Z,3.40
2018-09-02T20:12:45.332Z,2.20
2018-09-02T20:15:13.820Z,3.10
2018-09-02T20:17:42.310Z,3.33
2018-09-02T20:20:10.848Z,3.87
2018-09-02T20:22:39.360Z,3.27
2018-09-02T20:25:07.889Z,2.70
2018-09-02T20:27:36.406Z,3.60
2018-09-02T20:30:05.645Z,3.37
2018-09-02T20:32:34.144Z,3.40
2018-09-02T20:35:02.665Z,3.10
2018-09-02T20:37:31.188Z,3.03
2018-09-02T20:39:59.670Z,3.03
2018-09-02T20:42:28.177Z,3.10
2018-09-02T20:44:56.672Z,3.23
2018-09-02T20:47:25.177Z,3.80
2018-09-02T20:49:53.713Z,3.80
2018-09-02T20:52:22.206Z,3.40
2018-09-02T20:54:50.699Z,3.33
2018-09-02T20:57:19.208Z,3.70
2018-09-02T20:59:47.743Z,2.90
2018-09-02T21:02:16.306Z,3.27
2018-09-02T21:04:44.802Z,3.13
2018-09-02T21:07:13.276Z,4.43
2018-09-02T21:09:41.812Z,3.43
2018-09-02T21:12:10.397Z,3.30
2018-09-02T21:14:38.934Z,4.73
2018-09-02T21:17:07.533Z,3.90
2018-09-02T21:19:36.012Z,3.40
2018-09-02T21:22:04.546Z,3.07
2018-09-02T21:24:33.035Z,3.37
2018-09-02T21:27:01.667Z,4.53
2018-09-02T21:29:30.162Z,3.53
2018-09-02T21:31:58.680Z,3.80
2018-09-02T21:34:27.170Z,3.50
2018-09-02T21:36:55.687Z,3.60
2018-09-02T21:39:24.207Z,3.50
2018-09-02T21:41:52.719Z,3.60
2018-09-02T21:44:21.220Z,4.37
2018-09-02T21:46:49.698Z,3.83
2018-09-02T21:49:18.201Z,3.83
2018-09-02T21:51:46.715Z,3.10
2018-09-02T21:54:15.211Z,3.93
2018-09-02T21:56:43.774Z,4.73
2018-09-02T21:59:12.288Z,4.43
2018-09-02T22:01:40.831Z,3.90
2018-09-02T22:04:09.342Z,4.10
2018-09-02T22:06:37.830Z,4.27
2018-09-02T22:09:11.185Z,4.10
2018-09-02T22:11:39.669Z,4.23
2018-09-02T22:14:08.547Z,2.47
2018-09-02T22:16:37.099Z,3.60
2018-09-02T22:19:05.757Z,3.60
2018-09-02T22:21:34.256Z,2.80
2018-09-02T22:24:03.228Z,3.80
2018-09-02T22:26:32.540Z,3.27
2018-09-02T22:29:01.546Z,3.20
2018-09-02T22:31:30.089Z,4.07
2018-09-02T22:33:58.589Z,4.30
2018-09-02T22:36:27.093Z,3.50
2018-09-02T22:38:55.612Z,3.47
2018-09-02T22:41:24.201Z,4.50
2018-09-02T22:43:52.741Z,4.47
2018-09-02T22:46:21.285Z,3.60
2018-09-02T22:48:49.852Z,3.73
2018-09-02T22:51:18.364Z,4.07
2018-09-02T22:53:46.893Z,4.57
2018-09-02T22:56:15.399Z,5.60
2018-09-02T22:58:43.964Z,4.17
2018-09-02T23:01:12.529Z,4.30
2018-09-02T23:03:41.011Z,3.70
2018-09-02T23:06:09.486Z,4.40
2018-09-02T23:08:38.091Z,4.10
2018-09-02T23:11:06.602Z,7.20
2018-09-02T23:13:35.491Z,8.67
2018-09-02T23:16:04.020Z,5.40
2018-09-02T23:18:32.568Z,6.80
2018-09-02T23:21:01.113Z,3.93
2018-09-02T23:23:29.697Z,4.53
2018-09-02T23:25:58.234Z,3.57
2018-09-02T23:28:26.781Z,4.90
2018-09-02T23:30:55.285Z,3.50
2018-09-02T23:33:23.782Z,3.87
2018-09-02T23:35:52.354Z,4.60
2018-09-02T23:38:20.907Z,3.93
2018-09-02T23:40:49.401Z,3.67
2018-09-02T23:43:17.889Z,4.23
2018-09-02T23:45:46.406Z,3.90
2018-09-02T23:48:14.900Z,3.90
2018-09-02T23:50:43.414Z,3.50
2018-09-02T23:53:11.919Z,4.30
2018-09-02T23:55:40.400Z,4.90
2018-09-02T23:58:08.929Z,3.73
